Weather at Pangerl Airport [CLOSED]

Public forecast

Using degrees Fahrenheit for public forecast. Weather courtesy of forecast.io.

Closest aviation weather report (METAR) to Pangerl Airport

Closest report is Cambridge Municipal Airport, 9.7 nm (18.0 km) SSE.

2024/07/25 08:55 (retrieved 15 minutes ago)

KCBG 250855Z AUTO 00000KT 10SM CLR 11/08 A3023 RMK AO2

Closest aviation forecast (TAF) to Pangerl Airport

Closest forecast is Saint Cloud Regional Airport, 30.3 nm (56.2 km) WSW.

2024/07/25 06:22 (retrieved 3 hours ago)

TAF KSTC 250520Z 2506/2606 11003KT P6SM FEW200 FM251400 15008KT P6SM SKC FM260000 14005KT P6SM SKC